sensor_id;sensor_type;location;lat;lon;timestamp;temperature;humidity
27266;DHT22;14766;51.380;13.762;2023-02-01T00:01:20;7.80;69.60
27266;DHT22;14766;51.380;13.762;2023-02-01T00:03:47;7.80;69.70
27266;DHT22;14766;51.380;13.762;2023-02-01T00:06:14;7.80;70.10
27266;DHT22;14766;51.380;13.762;2023-02-01T00:08:41;7.80;70.20
27266;DHT22;14766;51.380;13.762;2023-02-01T00:11:10;7.90;70.40
27266;DHT22;14766;51.380;13.762;2023-02-01T00:13:40;7.90;70.50
27266;DHT22;14766;51.380;13.762;2023-02-01T00:16:11;7.80;70.20
27266;DHT22;14766;51.380;13.762;2023-02-01T00:18:45;7.80;70.20
27266;DHT22;14766;51.380;13.762;2023-02-01T00:21:14;7.80;70.20
27266;DHT22;14766;51.380;13.762;2023-02-01T00:23:42;7.80;69.80
27266;DHT22;14766;51.380;13.762;2023-02-01T00:26:22;7.80;69.90
27266;DHT22;14766;51.380;13.762;2023-02-01T00:28:52;7.80;70.00
27266;DHT22;14766;51.380;13.762;2023-02-01T00:31:20;7.80;69.90
27266;DHT22;14766;51.380;13.762;2023-02-01T00:33:48;7.70;69.60
27266;DHT22;14766;51.380;13.762;2023-02-01T00:36:15;7.70;69.90
27266;DHT22;14766;51.380;13.762;2023-02-01T00:38:43;7.70;69.90
27266;DHT22;14766;51.380;13.762;2023-02-01T00:41:18;7.70;70.00
27266;DHT22;14766;51.380;13.762;2023-02-01T00:43:48;7.70;70.20
27266;DHT22;14766;51.380;13.762;2023-02-01T00:46:17;7.70;70.50
27266;DHT22;14766;51.380;13.762;2023-02-01T00:48:44;7.70;70.70
27266;DHT22;14766;51.380;13.762;2023-02-01T00:51:14;7.70;70.70
27266;DHT22;14766;51.380;13.762;2023-02-01T00:53:41;7.70;70.60
27266;DHT22;14766;51.380;13.762;2023-02-01T00:56:09;7.70;70.60
27266;DHT22;14766;51.380;13.762;2023-02-01T00:58:36;7.70;70.60
27266;DHT22;14766;51.380;13.762;2023-02-01T01:03:35;7.70;70.10
27266;DHT22;14766;51.380;13.762;2023-02-01T01:06:07;7.70;70.00
27266;DHT22;14766;51.380;13.762;2023-02-01T01:08:35;7.70;69.90
27266;DHT22;14766;51.380;13.762;2023-02-01T01:11:17;7.60;69.80
27266;DHT22;14766;51.380;13.762;2023-02-01T01:13:47;7.60;69.80
27266;DHT22;14766;51.380;13.762;2023-02-01T01:16:14;7.60;70.00
27266;DHT22;14766;51.380;13.762;2023-02-01T01:18:41;7.60;70.00
27266;DHT22;14766;51.380;13.762;2023-02-01T01:21:10;7.60;69.70
27266;DHT22;14766;51.380;13.762;2023-02-01T01:23:38;7.60;69.80
27266;DHT22;14766;51.380;13.762;2023-02-01T01:26:09;7.60;69.60
27266;DHT22;14766;51.380;13.762;2023-02-01T01:28:36;7.60;69.70
27266;DHT22;14766;51.380;13.762;2023-02-01T01:31:08;7.50;69.60
27266;DHT22;14766;51.380;13.762;2023-02-01T01:33:35;7.50;69.50
27266;DHT22;14766;51.380;13.762;2023-02-01T01:36:05;7.50;69.50
27266;DHT22;14766;51.380;13.762;2023-02-01T01:38:32;7.50;69.70
27266;DHT22;14766;51.380;13.762;2023-02-01T01:41:00;7.50;69.40
27266;DHT22;14766;51.380;13.762;2023-02-01T01:43:47;7.40;69.10
27266;DHT22;14766;51.380;13.762;2023-02-01T01:46:24;7.40;68.90
27266;DHT22;14766;51.380;13.762;2023-02-01T01:49:20;7.40;69.00
27266;DHT22;14766;51.380;13.762;2023-02-01T01:51:53;7.40;69.20
27266;DHT22;14766;51.380;13.762;2023-02-01T01:54:35;7.40;69.20
27266;DHT22;14766;51.380;13.762;2023-02-01T01:57:09;7.30;68.90
27266;DHT22;14766;51.380;13.762;2023-02-01T01:59:39;7.30;68.90
27266;DHT22;14766;51.380;13.762;2023-02-01T02:02:08;7.30;68.90
27266;DHT22;14766;51.380;13.762;2023-02-01T02:04:36;7.30;69.70
27266;DHT22;14766;51.380;13.762;2023-02-01T02:07:14;7.40;68.80
27266;DHT22;14766;51.380;13.762;2023-02-01T02:09:43;7.40;68.70
27266;DHT22;14766;51.380;13.762;2023-02-01T02:12:25;7.40;68.50
27266;DHT22;14766;51.380;13.762;2023-02-01T02:14:52;7.40;68.60
27266;DHT22;14766;51.380;13.762;2023-02-01T02:17:48;7.40;68.40
27266;DHT22;14766;51.380;13.762;2023-02-01T02:21:06;7.40;68.30
27266;DHT22;14766;51.380;13.762;2023-02-01T02:23:36;7.40;68.30
27266;DHT22;14766;51.380;13.762;2023-02-01T02:26:41;7.40;68.30
27266;DHT22;14766;51.380;13.762;2023-02-01T02:29:32;7.40;68.20
27266;DHT22;14766;51.380;13.762;2023-02-01T02:35:02;7.30;68.40
27266;DHT22;14766;51.380;13.762;2023-02-01T02:40:20;7.30;68.70
27266;DHT22;14766;51.380;13.762;2023-02-01T02:43:20;7.30;68.70
27266;DHT22;14766;51.380;13.762;2023-02-01T02:46:15;7.30;69.00
27266;DHT22;14766;51.380;13.762;2023-02-01T02:49:09;7.30;69.00
27266;DHT22;14766;51.380;13.762;2023-02-01T02:51:41;7.30;68.90
27266;DHT22;14766;51.380;13.762;2023-02-01T02:54:33;7.30;68.90
27266;DHT22;14766;51.380;13.762;2023-02-01T02:57:19;7.30;68.80
27266;DHT22;14766;51.380;13.762;2023-02-01T03:00:09;7.20;68.70
27266;DHT22;14766;51.380;13.762;2023-02-01T03:02:55;7.30;68.90
27266;DHT22;14766;51.380;13.762;2023-02-01T03:05:44;7.30;69.00
27266;DHT22;14766;51.380;13.762;2023-02-01T03:08:24;7.20;69.20
27266;DHT22;14766;51.380;13.762;2023-02-01T03:14:05;7.20;69.20
27266;DHT22;14766;51.380;13.762;2023-02-01T03:19:25;7.20;69.50
27266;DHT22;14766;51.380;13.762;2023-02-01T03:21:59;7.30;69.30
27266;DHT22;14766;51.380;13.762;2023-02-01T03:24:40;7.30;69.20
27266;DHT22;14766;51.380;13.762;2023-02-01T03:29:46;7.30;69.20
27266;DHT22;14766;51.380;13.762;2023-02-01T03:32:15;7.30;69.00
27266;DHT22;14766;51.380;13.762;2023-02-01T03:34:43;7.30;68.90
27266;DHT22;14766;51.380;13.762;2023-02-01T03:37:12;7.30;68.80
27266;DHT22;14766;51.380;13.762;2023-02-01T03:39:59;7.30;68.70
27266;DHT22;14766;51.380;13.762;2023-02-01T03:42:38;7.40;68.40
27266;DHT22;14766;51.380;13.762;2023-02-01T03:45:31;7.40;68.50
27266;DHT22;14766;51.380;13.762;2023-02-01T03:48:01;7.40;68.20
27266;DHT22;14766;51.380;13.762;2023-02-01T03:50:31;7.40;68.30
27266;DHT22;14766;51.380;13.762;2023-02-01T03:53:08;7.40;68.30
27266;DHT22;14766;51.380;13.762;2023-02-01T03:55:37;7.40;67.90
27266;DHT22;14766;51.380;13.762;2023-02-01T03:58:31;7.40;67.90
27266;DHT22;14766;51.380;13.762;2023-02-01T04:00:59;7.40;68.10
27266;DHT22;14766;51.380;13.762;2023-02-01T04:03:29;7.40;67.80
27266;DHT22;14766;51.380;13.762;2023-02-01T04:05:56;7.50;68.00
27266;DHT22;14766;51.380;13.762;2023-02-01T04:08:26;7.50;67.80
27266;DHT22;14766;51.380;13.762;2023-02-01T04:10:54;7.50;67.90
27266;DHT22;14766;51.380;13.762;2023-02-01T04:13:20;7.50;67.70
27266;DHT22;14766;51.380;13.762;2023-02-01T04:15:48;7.50;67.80
27266;DHT22;14766;51.380;13.762;2023-02-01T04:18:16;7.50;67.70
27266;DHT22;14766;51.380;13.762;2023-02-01T04:20:43;7.50;67.70
27266;DHT22;14766;51.380;13.762;2023-02-01T04:23:11;7.50;67.70
27266;DHT22;14766;51.380;13.762;2023-02-01T04:25:39;7.50;67.70
27266;DHT22;14766;51.380;13.762;2023-02-01T04:28:06;7.50;67.60
27266;DHT22;14766;51.380;13.762;2023-02-01T04:30:33;7.50;67.70
27266;DHT22;14766;51.380;13.762;2023-02-01T04:33:00;7.50;67.50
27266;DHT22;14766;51.380;13.762;2023-02-01T04:35:30;7.50;67.50
27266;DHT22;14766;51.380;13.762;2023-02-01T04:37:57;7.50;67.50
27266;DHT22;14766;51.380;13.762;2023-02-01T04:40:24;7.50;67.60
27266;DHT22;14766;51.380;13.762;2023-02-01T04:42:51;7.50;67.50
27266;DHT22;14766;51.380;13.762;2023-02-01T04:45:18;7.50;67.60
27266;DHT22;14766;51.380;13.762;2023-02-01T04:47:46;7.50;67.20
27266;DHT22;14766;51.380;13.762;2023-02-01T04:50:15;7.50;67.40
27266;DHT22;14766;51.380;13.762;2023-02-01T04:52:42;7.50;67.40
27266;DHT22;14766;51.380;13.762;2023-02-01T04:55:09;7.50;67.40
27266;DHT22;14766;51.380;13.762;2023-02-01T04:57:36;7.60;67.50
27266;DHT22;14766;51.380;13.762;2023-02-01T05:00:07;7.50;67.10
27266;DHT22;14766;51.380;13.762;2023-02-01T05:02:34;7.50;66.90
27266;DHT22;14766;51.380;13.762;2023-02-01T05:05:02;7.50;66.80
27266;DHT22;14766;51.380;13.762;2023-02-01T05:07:29;7.50;66.80
27266;DHT22;14766;51.380;13.762;2023-02-01T05:09:56;7.50;67.00
27266;DHT22;14766;51.380;13.762;2023-02-01T05:12:23;7.50;66.90
27266;DHT22;14766;51.380;13.762;2023-02-01T05:15:09;7.60;66.70
27266;DHT22;14766;51.380;13.762;2023-02-01T05:17:36;7.60;66.70
27266;DHT22;14766;51.380;13.762;2023-02-01T05:20:03;7.60;66.60
27266;DHT22;14766;51.380;13.762;2023-02-01T05:22:30;7.60;66.50
27266;DHT22;14766;51.380;13.762;2023-02-01T05:24:57;7.60;66.60
27266;DHT22;14766;51.380;13.762;2023-02-01T05:27:25;7.60;66.60
27266;DHT22;14766;51.380;13.762;2023-02-01T05:29:52;7.60;66.30
27266;DHT22;14766;51.380;13.762;2023-02-01T05:32:19;7.60;66.20
27266;DHT22;14766;51.380;13.762;2023-02-01T05:34:48;7.70;66.00
27266;DHT22;14766;51.380;13.762;2023-02-01T05:37:16;7.70;66.00
27266;DHT22;14766;51.380;13.762;2023-02-01T05:39:43;7.70;65.70
27266;DHT22;14766;51.380;13.762;2023-02-01T05:42:09;7.70;65.90
27266;DHT22;14766;51.380;13.762;2023-02-01T05:44:37;7.70;65.70
27266;DHT22;14766;51.380;13.762;2023-02-01T05:47:04;7.70;65.70
27266;DHT22;14766;51.380;13.762;2023-02-01T05:49:31;7.70;65.60
27266;DHT22;14766;51.380;13.762;2023-02-01T05:52:02;7.70;65.40
27266;DHT22;14766;51.380;13.762;2023-02-01T05:54:29;7.70;65.60
27266;DHT22;14766;51.380;13.762;2023-02-01T05:56:56;7.70;65.40
27266;DHT22;14766;51.380;13.762;2023-02-01T05:59:23;7.70;65.10
27266;DHT22;14766;51.380;13.762;2023-02-01T06:01:50;7.70;65.10
27266;DHT22;14766;51.380;13.762;2023-02-01T06:04:17;7.70;65.10
27266;DHT22;14766;51.380;13.762;2023-02-01T06:06:44;7.70;65.10
27266;DHT22;14766;51.380;13.762;2023-02-01T06:09:11;7.70;65.30
27266;DHT22;14766;51.380;13.762;2023-02-01T06:11:39;7.70;65.00
27266;DHT22;14766;51.380;13.762;2023-02-01T06:14:07;7.70;65.00
27266;DHT22;14766;51.380;13.762;2023-02-01T06:16:34;7.70;65.10
27266;DHT22;14766;51.380;13.762;2023-02-01T06:19:01;7.70;65.00
27266;DHT22;14766;51.380;13.762;2023-02-01T06:21:28;7.70;65.00
27266;DHT22;14766;51.380;13.762;2023-02-01T06:23:55;7.70;64.80
27266;DHT22;14766;51.380;13.762;2023-02-01T06:26:24;7.70;65.10
27266;DHT22;14766;51.380;13.762;2023-02-01T06:28:52;7.70;65.10
27266;DHT22;14766;51.380;13.762;2023-02-01T06:31:19;7.70;65.10
27266;DHT22;14766;51.380;13.762;2023-02-01T06:33:46;7.70;65.00
27266;DHT22;14766;51.380;13.762;2023-02-01T06:36:13;7.70;65.20
27266;DHT22;14766;51.380;13.762;2023-02-01T06:38:42;7.70;65.10
27266;DHT22;14766;51.380;13.762;2023-02-01T06:41:09;7.70;65.10
27266;DHT22;14766;51.380;13.762;2023-02-01T06:43:37;7.70;65.20
27266;DHT22;14766;51.380;13.762;2023-02-01T06:46:07;7.70;65.40
27266;DHT22;14766;51.380;13.762;2023-02-01T06:48:35;7.80;65.50
27266;DHT22;14766;51.380;13.762;2023-02-01T06:51:02;7.70;65.10
27266;DHT22;14766;51.380;13.762;2023-02-01T06:53:29;7.70;66.00
27266;DHT22;14766;51.380;13.762;2023-02-01T06:55:58;7.70;65.10
27266;DHT22;14766;51.380;13.762;2023-02-01T06:58:33;7.70;65.20
27266;DHT22;14766;51.380;13.762;2023-02-01T07:01:08;7.70;65.30
27266;DHT22;14766;51.380;13.762;2023-02-01T07:03:36;7.80;66.30
27266;DHT22;14766;51.380;13.762;2023-02-01T07:06:04;7.70;65.50
27266;DHT22;14766;51.380;13.762;2023-02-01T07:08:33;7.80;65.60
27266;DHT22;14766;51.380;13.762;2023-02-01T07:11:06;7.80;65.40
27266;DHT22;14766;51.380;13.762;2023-02-01T07:13:34;7.80;66.10
27266;DHT22;14766;51.380;13.762;2023-02-01T07:16:03;7.70;66.10
27266;DHT22;14766;51.380;13.762;2023-02-01T07:18:31;7.70;67.20
27266;DHT22;14766;51.380;13.762;2023-02-01T07:20:59;7.80;68.00
27266;DHT22;14766;51.380;13.762;2023-02-01T07:23:26;7.80;68.50
27266;DHT22;14766;51.380;13.762;2023-02-01T07:26:02;7.70;69.60
27266;DHT22;14766;51.380;13.762;2023-02-01T07:28:30;7.70;69.00
27266;DHT22;14766;51.380;13.762;2023-02-01T07:33:31;7.70;68.90
27266;DHT22;14766;51.380;13.762;2023-02-01T07:36:01;7.70;69.10
27266;DHT22;14766;51.380;13.762;2023-02-01T07:38:29;7.70;69.30
27266;DHT22;14766;51.380;13.762;2023-02-01T07:41:01;7.60;69.20
27266;DHT22;14766;51.380;13.762;2023-02-01T07:43:29;7.70;69.30
27266;DHT22;14766;51.380;13.762;2023-02-01T07:45:56;7.60;69.90
27266;DHT22;14766;51.380;13.762;2023-02-01T07:48:25;7.60;69.00
27266;DHT22;14766;51.380;13.762;2023-02-01T07:51:05;7.60;69.20
27266;DHT22;14766;51.380;13.762;2023-02-01T07:53:34;7.60;69.00
27266;DHT22;14766;51.380;13.762;2023-02-01T07:56:01;7.60;69.10
27266;DHT22;14766;51.380;13.762;2023-02-01T07:58:29;7.60;69.00
27266;DHT22;14766;51.380;13.762;2023-02-01T08:00:56;7.60;69.00
27266;DHT22;14766;51.380;13.762;2023-02-01T08:03:42;7.60;68.90
27266;DHT22;14766;51.380;13.762;2023-02-01T08:06:09;7.60;68.50
27266;DHT22;14766;51.380;13.762;2023-02-01T08:08:36;7.50;68.70
27266;DHT22;14766;51.380;13.762;2023-02-01T08:11:05;7.50;69.20
27266;DHT22;14766;51.380;13.762;2023-02-01T08:13:33;7.60;69.50
27266;DHT22;14766;51.380;13.762;2023-02-01T08:16:04;7.60;69.40
27266;DHT22;14766;51.380;13.762;2023-02-01T08:18:32;7.60;69.50
27266;DHT22;14766;51.380;13.762;2023-02-01T08:21:07;7.60;69.50
27266;DHT22;14766;51.380;13.762;2023-02-01T08:23:36;7.60;69.40
27266;DHT22;14766;51.380;13.762;2023-02-01T08:26:18;7.60;69.30
27266;DHT22;14766;51.380;13.762;2023-02-01T08:28:52;7.60;69.30
27266;DHT22;14766;51.380;13.762;2023-02-01T08:31:22;7.60;69.50
27266;DHT22;14766;51.380;13.762;2023-02-01T08:33:53;7.60;69.50
27266;DHT22;14766;51.380;13.762;2023-02-01T08:36:21;7.70;69.50
27266;DHT22;14766;51.380;13.762;2023-02-01T08:38:49;7.70;69.20
27266;DHT22;14766;51.380;13.762;2023-02-01T08:41:19;7.70;69.00
27266;DHT22;14766;51.380;13.762;2023-02-01T08:43:47;7.70;68.80
27266;DHT22;14766;51.380;13.762;2023-02-01T08:46:15;7.70;68.60
27266;DHT22;14766;51.380;13.762;2023-02-01T08:48:43;7.70;68.20
27266;DHT22;14766;51.380;13.762;2023-02-01T08:51:13;7.70;68.20
27266;DHT22;14766;51.380;13.762;2023-02-01T08:53:41;7.80;68.90
27266;DHT22;14766;51.380;13.762;2023-02-01T08:56:14;7.80;68.50
27266;DHT22;14766;51.380;13.762;2023-02-01T08:58:42;7.90;67.80
27266;DHT22;14766;51.380;13.762;2023-02-01T09:01:14;7.90;68.00
27266;DHT22;14766;51.380;13.762;2023-02-01T09:03:42;8.00;68.00
27266;DHT22;14766;51.380;13.762;2023-02-01T09:06:11;8.10;67.60
27266;DHT22;14766;51.380;13.762;2023-02-01T09:08:39;8.10;67.10
27266;DHT22;14766;51.380;13.762;2023-02-01T09:11:11;8.10;67.00
27266;DHT22;14766;51.380;13.762;2023-02-01T09:13:38;8.10;66.70
27266;DHT22;14766;51.380;13.762;2023-02-01T09:16:06;8.20;67.00
27266;DHT22;14766;51.380;13.762;2023-02-01T09:18:33;8.20;66.70
27266;DHT22;14766;51.380;13.762;2023-02-01T09:21:05;8.20;66.70
27266;DHT22;14766;51.380;13.762;2023-02-01T09:23:33;8.20;66.70
27266;DHT22;14766;51.380;13.762;2023-02-01T09:26:04;8.20;66.70
27266;DHT22;14766;51.380;13.762;2023-02-01T09:28:31;8.20;67.50
27266;DHT22;14766;51.380;13.762;2023-02-01T09:31:00;8.20;67.90
27266;DHT22;14766;51.380;13.762;2023-02-01T09:33:28;8.20;68.10
27266;DHT22;14766;51.380;13.762;2023-02-01T09:35:57;8.20;69.10
27266;DHT22;14766;51.380;13.762;2023-02-01T09:38:25;8.10;69.80
27266;DHT22;14766;51.380;13.762;2023-02-01T09:40:54;8.10;70.40
27266;DHT22;14766;51.380;13.762;2023-02-01T09:46:28;8.00;71.40
27266;DHT22;14766;51.380;13.762;2023-02-01T09:49:00;7.90;72.00
27266;DHT22;14766;51.380;13.762;2023-02-01T09:51:36;7.90;72.60
27266;DHT22;14766;51.380;13.762;2023-02-01T09:54:15;7.90;73.10
27266;DHT22;14766;51.380;13.762;2023-02-01T09:57:00;7.80;73.10
27266;DHT22;14766;51.380;13.762;2023-02-01T09:59:44;7.70;73.40
27266;DHT22;14766;51.380;13.762;2023-02-01T10:02:20;7.70;74.10
27266;DHT22;14766;51.380;13.762;2023-02-01T10:04:48;7.70;74.10
27266;DHT22;14766;51.380;13.762;2023-02-01T10:09:58;7.60;74.40
27266;DHT22;14766;51.380;13.762;2023-02-01T10:15:40;7.60;75.00
27266;DHT22;14766;51.380;13.762;2023-02-01T10:21:40;7.50;74.70
27266;DHT22;14766;51.380;13.762;2023-02-01T10:27:08;7.50;75.20
27266;DHT22;14766;51.380;13.762;2023-02-01T10:29:40;7.50;75.30
27266;DHT22;14766;51.380;13.762;2023-02-01T10:32:17;7.50;75.10
27266;DHT22;14766;51.380;13.762;2023-02-01T10:34:50;7.50;75.40
27266;DHT22;14766;51.380;13.762;2023-02-01T10:37:30;7.50;75.50
27266;DHT22;14766;51.380;13.762;2023-02-01T10:40:25;7.50;75.60
27266;DHT22;14766;51.380;13.762;2023-02-01T10:42:59;7.50;75.70
27266;DHT22;14766;51.380;13.762;2023-02-01T10:45:29;7.50;75.30
27266;DHT22;14766;51.380;13.762;2023-02-01T10:47:59;7.60;75.40
27266;DHT22;14766;51.380;13.762;2023-02-01T10:50:49;7.60;75.40
27266;DHT22;14766;51.380;13.762;2023-02-01T10:55:56;7.60;74.90
27266;DHT22;14766;51.380;13.762;2023-02-01T10:58:29;7.70;75.00
27266;DHT22;14766;51.380;13.762;2023-02-01T11:01:04;7.70;75.00
27266;DHT22;14766;51.380;13.762;2023-02-01T11:03:44;7.70;74.70
27266;DHT22;14766;51.380;13.762;2023-02-01T11:06:38;7.70;74.60
27266;DHT22;14766;51.380;13.762;2023-02-01T11:11:52;7.80;74.40
27266;DHT22;14766;51.380;13.762;2023-02-01T11:14:20;7.80;74.30
27266;DHT22;14766;51.380;13.762;2023-02-01T11:17:54;7.90;74.50
27266;DHT22;14766;51.380;13.762;2023-02-01T11:20:02;7.90;74.20
27266;DHT22;14766;51.380;13.762;2023-02-01T11:22:30;7.90;74.00
27266;DHT22;14766;51.380;13.762;2023-02-01T11:24:59;8.00;73.90
27266;DHT22;14766;51.380;13.762;2023-02-01T11:27:29;8.00;73.70
27266;DHT22;14766;51.380;13.762;2023-02-01T11:30:00;8.10;73.50
27266;DHT22;14766;51.380;13.762;2023-02-01T11:32:30;8.10;73.30
27266;DHT22;14766;51.380;13.762;2023-02-01T11:35:05;8.10;72.80
27266;DHT22;14766;51.380;13.762;2023-02-01T11:37:41;8.10;72.50
27266;DHT22;14766;51.380;13.762;2023-02-01T11:42:56;8.20;71.90
27266;DHT22;14766;51.380;13.762;2023-02-01T11:45:32;8.20;72.10
27266;DHT22;14766;51.380;13.762;2023-02-01T11:48:15;8.20;72.40
27266;DHT22;14766;51.380;13.762;2023-02-01T11:56:46;8.10;73.30
27266;DHT22;14766;51.380;13.762;2023-02-01T12:05:27;8.00;74.10
27266;DHT22;14766;51.380;13.762;2023-02-01T12:08:21;7.90;74.50
27266;DHT22;14766;51.380;13.762;2023-02-01T12:44:50;8.20;76.10
27266;DHT22;14766;51.380;13.762;2023-02-01T12:47:35;8.30;75.70
27266;DHT22;14766;51.380;13.762;2023-02-01T12:50:41;8.30;75.10
27266;DHT22;14766;51.380;13.762;2023-02-01T12:53:25;8.40;74.90
27266;DHT22;14766;51.380;13.762;2023-02-01T12:56:00;8.40;74.60
27266;DHT22;14766;51.380;13.762;2023-02-01T12:58:50;8.40;74.50
27266;DHT22;14766;51.380;13.762;2023-02-01T13:01:39;8.40;74.20
27266;DHT22;14766;51.380;13.762;2023-02-01T13:06:52;8.50;73.90
27266;DHT22;14766;51.380;13.762;2023-02-01T13:11:48;8.40;72.20
27266;DHT22;14766;51.380;13.762;2023-02-01T13:14:40;8.50;72.10
27266;DHT22;14766;51.380;13.762;2023-02-01T13:17:19;8.40;70.90
27266;DHT22;14766;51.380;13.762;2023-02-01T13:20:16;8.40;70.60
27266;DHT22;14766;51.380;13.762;2023-02-01T13:22:58;8.40;70.20
27266;DHT22;14766;51.380;13.762;2023-02-01T13:25:53;8.40;70.00
27266;DHT22;14766;51.380;13.762;2023-02-01T13:42:46;8.40;67.90
27266;DHT22;14766;51.380;13.762;2023-02-01T13:47:26;8.50;68.10
27266;DHT22;14766;51.380;13.762;2023-02-01T13:49:57;8.50;67.10
27266;DHT22;14766;51.380;13.762;2023-02-01T13:52:42;8.60;67.30
27266;DHT22;14766;51.380;13.762;2023-02-01T13:57:42;8.60;66.80
27266;DHT22;14766;51.380;13.762;2023-02-01T14:10:58;8.80;65.40
27266;DHT22;14766;51.380;13.762;2023-02-01T14:13:41;8.80;64.60
27266;DHT22;14766;51.380;13.762;2023-02-01T14:16:16;8.80;64.50
27266;DHT22;14766;51.380;13.762;2023-02-01T14:21:25;8.90;64.20
27266;DHT22;14766;51.380;13.762;2023-02-01T14:34:29;9.00;62.90
27266;DHT22;14766;51.380;13.762;2023-02-01T14:37:10;9.00;62.30
27266;DHT22;14766;51.380;13.762;2023-02-01T14:40:36;9.00;61.70
27266;DHT22;14766;51.380;13.762;2023-02-01T14:50:40;9.00;60.50
27266;DHT22;14766;51.380;13.762;2023-02-01T14:53:25;9.00;60.00
27266;DHT22;14766;51.380;13.762;2023-02-01T14:55:58;9.00;60.20
27266;DHT22;14766;51.380;13.762;2023-02-01T15:09:08;9.00;60.40
27266;DHT22;14766;51.380;13.762;2023-02-01T15:14:43;9.00;61.80
27266;DHT22;14766;51.380;13.762;2023-02-01T15:20:03;9.00;63.20
27266;DHT22;14766;51.380;13.762;2023-02-01T15:22:39;8.90;63.70
27266;DHT22;14766;51.380;13.762;2023-02-01T15:25:17;8.80;65.10
27266;DHT22;14766;51.380;13.762;2023-02-01T15:27:45;8.70;65.50
27266;DHT22;14766;51.380;13.762;2023-02-01T15:30:18;8.70;66.30
27266;DHT22;14766;51.380;13.762;2023-02-01T15:32:46;8.60;67.10
27266;DHT22;14766;51.380;13.762;2023-02-01T15:43:44;8.50;68.10
27266;DHT22;14766;51.380;13.762;2023-02-01T15:46:41;8.40;68.10
27266;DHT22;14766;51.380;13.762;2023-02-01T15:49:30;8.40;67.90
27266;DHT22;14766;51.380;13.762;2023-02-01T15:52:01;8.30;67.30
27266;DHT22;14766;51.380;13.762;2023-02-01T15:54:46;8.30;66.70
27266;DHT22;14766;51.380;13.762;2023-02-01T15:57:20;8.30;66.70
27266;DHT22;14766;51.380;13.762;2023-02-01T15:59:48;8.30;66.50
27266;DHT22;14766;51.380;13.762;2023-02-01T16:02:34;8.30;66.80
27266;DHT22;14766;51.380;13.762;2023-02-01T16:05:03;8.30;66.00
27266;DHT22;14766;51.380;13.762;2023-02-01T16:07:33;8.30;66.10
27266;DHT22;14766;51.380;13.762;2023-02-01T16:10:02;8.30;66.60
27266;DHT22;14766;51.380;13.762;2023-02-01T16:12:46;8.30;66.40
27266;DHT22;14766;51.380;13.762;2023-02-01T16:15:14;8.30;66.70
27266;DHT22;14766;51.380;13.762;2023-02-01T16:17:41;8.30;67.70
27266;DHT22;14766;51.380;13.762;2023-02-01T16:20:11;8.30;68.70
27266;DHT22;14766;51.380;13.762;2023-02-01T16:22:38;8.30;69.30
27266;DHT22;14766;51.380;13.762;2023-02-01T16:25:05;8.20;70.10
27266;DHT22;14766;51.380;13.762;2023-02-01T16:27:32;8.20;70.40
27266;DHT22;14766;51.380;13.762;2023-02-01T16:29:59;8.10;72.50
27266;DHT22;14766;51.380;13.762;2023-02-01T16:32:27;8.00;72.90
27266;DHT22;14766;51.380;13.762;2023-02-01T16:34:56;7.90;73.10
27266;DHT22;14766;51.380;13.762;2023-02-01T16:37:24;7.80;73.60
27266;DHT22;14766;51.380;13.762;2023-02-01T16:39:54;7.70;73.90
27266;DHT22;14766;51.380;13.762;2023-02-01T16:42:21;7.60;74.20
27266;DHT22;14766;51.380;13.762;2023-02-01T16:44:48;7.60;74.40
27266;DHT22;14766;51.380;13.762;2023-02-01T16:47:20;7.50;74.70
27266;DHT22;14766;51.380;13.762;2023-02-01T16:49:49;7.50;75.00
27266;DHT22;14766;51.380;13.762;2023-02-01T16:52:22;7.40;75.10
27266;DHT22;14766;51.380;13.762;2023-02-01T16:54:50;7.30;75.40
27266;DHT22;14766;51.380;13.762;2023-02-01T16:57:19;7.30;75.60
27266;DHT22;14766;51.380;13.762;2023-02-01T16:59:50;7.30;75.70
27266;DHT22;14766;51.380;13.762;2023-02-01T17:02:19;7.30;75.70
27266;DHT22;14766;51.380;13.762;2023-02-01T17:04:46;7.30;75.30
27266;DHT22;14766;51.380;13.762;2023-02-01T17:07:17;7.30;75.20
27266;DHT22;14766;51.380;13.762;2023-02-01T17:09:46;7.30;75.00
27266;DHT22;14766;51.380;13.762;2023-02-01T17:12:24;7.20;74.80
27266;DHT22;14766;51.380;13.762;2023-02-01T17:14:52;7.20;74.50
27266;DHT22;14766;51.380;13.762;2023-02-01T17:17:21;7.30;74.20
27266;DHT22;14766;51.380;13.762;2023-02-01T17:20:03;7.20;73.70
27266;DHT22;14766;51.380;13.762;2023-02-01T17:22:30;7.30;74.60
27266;DHT22;14766;51.380;13.762;2023-02-01T17:24:58;7.20;73.50
27266;DHT22;14766;51.380;13.762;2023-02-01T17:27:25;7.20;73.50
27266;DHT22;14766;51.380;13.762;2023-02-01T17:29:56;7.30;73.30
27266;DHT22;14766;51.380;13.762;2023-02-01T17:32:24;7.30;73.20
27266;DHT22;14766;51.380;13.762;2023-02-01T17:34:52;7.30;73.10
27266;DHT22;14766;51.380;13.762;2023-02-01T17:37:37;7.30;73.90
27266;DHT22;14766;51.380;13.762;2023-02-01T17:40:04;7.30;72.10
27266;DHT22;14766;51.380;13.762;2023-02-01T17:42:32;7.30;72.00
27266;DHT22;14766;51.380;13.762;2023-02-01T17:45:02;7.30;71.90
27266;DHT22;14766;51.380;13.762;2023-02-01T17:47:41;7.30;71.60
27266;DHT22;14766;51.380;13.762;2023-02-01T17:50:08;7.20;71.40
27266;DHT22;14766;51.380;13.762;2023-02-01T17:52:36;7.30;71.60
27266;DHT22;14766;51.380;13.762;2023-02-01T17:55:18;7.20;71.40
27266;DHT22;14766;51.380;13.762;2023-02-01T17:57:45;7.20;71.40
27266;DHT22;14766;51.380;13.762;2023-02-01T18:00:15;7.20;71.40
27266;DHT22;14766;51.380;13.762;2023-02-01T18:02:43;7.20;71.30
27266;DHT22;14766;51.380;13.762;2023-02-01T18:05:21;7.20;71.50
27266;DHT22;14766;51.380;13.762;2023-02-01T18:07:50;7.20;71.40
27266;DHT22;14766;51.380;13.762;2023-02-01T18:10:17;7.20;71.40
27266;DHT22;14766;51.380;13.762;2023-02-01T18:12:47;7.20;71.50
27266;DHT22;14766;51.380;13.762;2023-02-01T18:15:22;7.20;71.20
27266;DHT22;14766;51.380;13.762;2023-02-01T18:17:50;7.20;70.90
27266;DHT22;14766;51.380;13.762;2023-02-01T18:20:23;7.20;71.00
27266;DHT22;14766;51.380;13.762;2023-02-01T18:22:50;7.10;70.70
27266;DHT22;14766;51.380;13.762;2023-02-01T18:25:23;7.10;70.70
27266;DHT22;14766;51.380;13.762;2023-02-01T18:27:53;7.00;70.70
27266;DHT22;14766;51.380;13.762;2023-02-01T18:30:22;7.00;70.80
27266;DHT22;14766;51.380;13.762;2023-02-01T18:32:50;7.00;70.80
27266;DHT22;14766;51.380;13.762;2023-02-01T18:37:50;6.90;71.10
27266;DHT22;14766;51.380;13.762;2023-02-01T18:40:20;6.90;71.30
27266;DHT22;14766;51.380;13.762;2023-02-01T18:42:48;6.90;71.30
27266;DHT22;14766;51.380;13.762;2023-02-01T18:48:03;6.80;71.50
27266;DHT22;14766;51.380;13.762;2023-02-01T18:50:33;6.80;71.70
27266;DHT22;14766;51.380;13.762;2023-02-01T18:53:02;6.80;71.80
27266;DHT22;14766;51.380;13.762;2023-02-01T18:55:30;6.80;71.90
27266;DHT22;14766;51.380;13.762;2023-02-01T18:58:02;6.80;72.10